createdAt,value
2018-07-12T00:03:42.677Z,3.30
2018-07-12T00:08:44.964Z,4.07
2018-07-12T00:13:47.227Z,4.13
2018-07-12T00:18:49.723Z,4.33
2018-07-12T00:23:51.997Z,4.13
2018-07-12T00:28:54.237Z,4.60
2018-07-12T00:33:56.782Z,3.97
2018-07-12T00:38:59.082Z,4.53
2018-07-12T00:44:01.302Z,4.17
2018-07-12T00:49:03.521Z,4.50
2018-07-12T00:54:05.771Z,3.60
2018-07-12T00:59:08.008Z,3.90
2018-07-12T01:04:10.218Z,4.23
2018-07-12T01:09:12.455Z,4.00
2018-07-12T01:14:14.708Z,4.00
2018-07-12T01:19:16.920Z,3.47
2018-07-12T01:24:19.158Z,3.80
2018-07-12T01:29:21.383Z,4.00
2018-07-12T01:34:23.590Z,3.47
2018-07-12T01:39:26.006Z,3.30
2018-07-12T01:44:28.222Z,3.53
2018-07-12T01:49:30.459Z,3.93
2018-07-12T01:54:32.708Z,3.63
2018-07-12T01:59:34.918Z,3.60
2018-07-12T02:04:37.134Z,3.60
2018-07-12T02:09:39.435Z,3.70
2018-07-12T02:14:41.648Z,3.73
2018-07-12T02:19:43.883Z,4.47
2018-07-12T02:24:46.116Z,4.37
2018-07-12T02:29:48.337Z,4.20
2018-07-12T02:34:50.596Z,4.03
2018-07-12T02:39:52.815Z,3.97
2018-07-12T02:44:55.091Z,4.40
2018-07-12T02:49:57.314Z,4.47
2018-07-12T02:55:00.284Z,4.50
2018-07-12T03:00:02.598Z,4.60
2018-07-12T03:05:04.855Z,5.00
2018-07-12T03:10:07.071Z,4.63
2018-07-12T03:15:09.343Z,4.93
2018-07-12T03:20:11.559Z,4.90
2018-07-12T03:25:13.799Z,4.90
2018-07-12T03:30:16.024Z,5.13
2018-07-12T03:35:18.278Z,5.10
2018-07-12T03:40:20.547Z,5.50
2018-07-12T03:45:23.020Z,5.63
2018-07-12T03:50:25.237Z,5.53
2018-07-12T03:55:27.487Z,6.33
2018-07-12T04:00:29.770Z,6.57
2018-07-12T04:05:31.986Z,6.33
2018-07-12T04:10:34.224Z,5.97
2018-07-12T04:15:36.463Z,6.23
2018-07-12T04:20:38.718Z,6.70
2018-07-12T04:25:40.947Z,6.23
2018-07-12T04:30:43.174Z,7.00
2018-07-12T04:35:45.411Z,7.27
2018-07-12T04:40:47.674Z,7.20
2018-07-12T04:45:49.925Z,8.43
2018-07-12T04:50:52.147Z,7.37
2018-07-12T04:55:54.587Z,7.50
2018-07-12T05:00:56.814Z,8.77
2018-07-12T05:05:59.033Z,9.63
2018-07-12T05:11:01.260Z,10.17
2018-07-12T05:16:03.519Z,9.60
2018-07-12T05:21:05.717Z,9.23
2018-07-12T05:26:07.943Z,8.27
2018-07-12T05:31:10.154Z,7.73
2018-07-12T05:36:21.914Z,8.20
2018-07-12T05:41:25.020Z,7.70
2018-07-12T05:46:28.040Z,7.33
2018-07-12T05:51:31.278Z,7.27
2018-07-12T05:56:34.826Z,8.30
2018-07-12T06:01:49.535Z,7.67
2018-07-12T06:06:53.096Z,7.10
2018-07-12T06:11:56.410Z,7.40
2018-07-12T06:16:59.699Z,7.30
2018-07-12T06:22:02.974Z,7.83
2018-07-12T06:27:06.351Z,7.67
2018-07-12T06:32:09.676Z,7.10
2018-07-12T06:37:13.175Z,7.10
2018-07-12T06:42:16.585Z,6.60
2018-07-12T06:47:19.906Z,7.23
2018-07-12T06:52:23.197Z,6.43
2018-07-12T06:57:26.493Z,6.93
2018-07-12T07:02:37.804Z,6.83
2018-07-12T07:07:41.059Z,7.37
2018-07-12T07:12:44.463Z,6.77
2018-07-12T07:17:47.738Z,7.47
2018-07-12T07:22:51.462Z,6.27
2018-07-12T07:27:54.851Z,6.33
2018-07-12T07:32:58.108Z,6.97
2018-07-12T07:38:01.475Z,6.30
2018-07-12T07:43:05.179Z,7.00
2018-07-12T07:48:08.558Z,6.47
2018-07-12T07:53:11.856Z,7.27
2018-07-12T07:58:15.171Z,7.50
2018-07-12T08:03:18.500Z,7.30
2018-07-12T08:08:21.773Z,7.87
2018-07-12T08:13:25.037Z,7.70
2018-07-12T08:18:28.296Z,8.30
2018-07-12T08:23:31.571Z,8.00
2018-07-12T08:28:34.814Z,7.47
2018-07-12T08:33:44.722Z,7.73
2018-07-12T08:38:47.983Z,8.13
2018-07-12T08:43:51.291Z,7.43
2018-07-12T08:48:54.536Z,7.10
2018-07-12T08:53:57.775Z,7.63
2018-07-12T08:59:01.151Z,7.33
2018-07-12T09:04:04.444Z,6.53
2018-07-12T09:09:08.295Z,7.87
2018-07-12T09:14:11.611Z,7.97
2018-07-12T09:19:14.879Z,6.40
2018-07-12T09:24:18.135Z,6.80
2018-07-12T09:29:21.433Z,6.73
2018-07-12T09:34:24.736Z,6.90
2018-07-12T09:39:28.019Z,7.33
2018-07-12T09:44:31.446Z,6.97
2018-07-12T09:49:34.876Z,7.30
2018-07-12T09:54:38.227Z,7.73
2018-07-12T09:59:41.612Z,6.20
2018-07-12T10:04:44.899Z,6.03
2018-07-12T10:09:57.034Z,7.70
2018-07-12T10:15:05.644Z,7.30
2018-07-12T10:20:08.870Z,7.93
2018-07-12T10:25:12.323Z,6.40
2018-07-12T10:30:15.597Z,7.80
2018-07-12T10:35:18.951Z,6.07
2018-07-12T10:40:22.195Z,6.23
2018-07-12T10:45:25.466Z,6.90
2018-07-12T10:50:28.730Z,6.67
2018-07-12T10:55:32.096Z,6.40
2018-07-12T11:00:35.566Z,5.13
2018-07-12T11:05:38.830Z,5.40
2018-07-12T11:10:42.226Z,6.40
2018-07-12T11:15:46.456Z,6.80
2018-07-12T11:20:49.438Z,6.43
2018-07-12T11:25:52.795Z,6.13
2018-07-12T11:30:56.100Z,5.87
2018-07-12T11:35:59.420Z,5.13
2018-07-12T11:41:03.300Z,5.13
2018-07-12T11:46:07.836Z,4.87
2018-07-12T11:51:11.267Z,4.63
2018-07-12T11:56:14.648Z,5.67
2018-07-12T12:01:18.155Z,4.70
2018-07-12T12:06:21.395Z,5.17
2018-07-12T12:11:24.758Z,3.57
2018-07-12T12:16:28.046Z,4.77
2018-07-12T12:21:31.460Z,4.83
2018-07-12T12:26:34.764Z,3.80
2018-07-12T12:31:38.039Z,4.60
2018-07-12T12:36:41.275Z,3.87
2018-07-12T12:41:44.686Z,4.60
2018-07-12T12:46:47.942Z,3.87
2018-07-12T12:51:51.261Z,4.60
2018-07-12T12:56:54.511Z,3.80
2018-07-12T13:01:57.881Z,3.40
2018-07-12T13:07:01.244Z,3.37
2018-07-12T13:12:04.631Z,3.97
2018-07-12T13:17:07.998Z,4.07
2018-07-12T13:22:11.637Z,3.80
2018-07-12T13:27:14.941Z,4.60
2018-07-12T13:32:18.204Z,3.63
2018-07-12T13:37:21.664Z,3.50
2018-07-12T13:42:24.919Z,2.83
2018-07-12T13:47:28.207Z,3.70
2018-07-12T13:52:31.467Z,3.60
2018-07-12T13:57:34.815Z,3.20
2018-07-12T14:02:38.273Z,3.40
2018-07-12T14:07:41.651Z,3.20
2018-07-12T14:12:44.996Z,2.77
2018-07-12T14:17:48.258Z,2.33
2018-07-12T14:22:51.617Z,2.30
2018-07-12T14:27:54.965Z,2.67
2018-07-12T14:32:58.299Z,2.37
2018-07-12T14:38:01.551Z,2.30
2018-07-12T14:43:04.855Z,2.80
2018-07-12T14:48:08.168Z,2.37
2018-07-12T14:53:11.578Z,2.70
2018-07-12T14:58:14.847Z,2.70
2018-07-12T15:03:18.150Z,2.90
2018-07-12T15:08:21.430Z,3.17
2018-07-12T15:13:24.690Z,2.50
2018-07-12T15:18:28.099Z,2.40
2018-07-12T15:23:31.402Z,2.37
2018-07-12T15:28:34.843Z,2.53
2018-07-12T15:33:38.201Z,2.27
2018-07-12T15:38:41.478Z,2.17
2018-07-12T15:43:44.806Z,2.30
2018-07-12T15:48:48.087Z,2.37
2018-07-12T15:53:51.355Z,2.37
2018-07-12T15:58:54.619Z,2.23
2018-07-12T16:03:57.963Z,2.87
2018-07-12T16:09:01.218Z,2.17
2018-07-12T16:14:04.542Z,2.43
2018-07-12T16:19:07.850Z,2.30
2018-07-12T16:24:11.211Z,2.10
2018-07-12T16:29:14.462Z,2.60
2018-07-12T16:34:18.067Z,2.30
2018-07-12T16:39:21.032Z,2.17
2018-07-12T16:44:24.432Z,1.73
2018-07-12T16:49:27.764Z,2.20
2018-07-12T16:54:32.245Z,2.23
2018-07-12T16:59:35.495Z,2.20
2018-07-12T17:04:38.828Z,2.53
2018-07-12T17:09:42.192Z,2.33
2018-07-12T17:14:45.565Z,2.63
2018-07-12T17:19:48.813Z,3.00
2018-07-12T17:24:52.231Z,2.03
2018-07-12T17:29:55.648Z,2.27
2018-07-12T17:34:58.914Z,2.20
2018-07-12T17:40:02.263Z,2.50
2018-07-12T17:45:05.574Z,2.10
2018-07-12T17:50:08.840Z,2.13
2018-07-12T17:55:12.094Z,2.60
2018-07-12T18:00:15.437Z,2.17
2018-07-12T18:05:18.860Z,2.20
2018-07-12T18:10:22.042Z,2.40
2018-07-12T18:15:25.320Z,2.07
2018-07-12T18:20:28.687Z,1.97
2018-07-12T18:25:32.040Z,2.30
2018-07-12T18:30:35.342Z,2.10
2018-07-12T18:35:38.781Z,1.87
2018-07-12T18:40:42.204Z,1.97
2018-07-12T18:45:45.857Z,2.07
2018-07-12T18:50:49.158Z,1.87
2018-07-12T18:55:52.421Z,2.13
2018-07-12T19:00:55.773Z,1.80
2018-07-12T19:05:59.387Z,2.03
2018-07-12T19:11:02.718Z,2.10
2018-07-12T19:16:06.057Z,2.07
2018-07-12T19:21:09.371Z,1.83
2018-07-12T19:26:12.671Z,2.17
2018-07-12T19:31:16.236Z,1.90
2018-07-12T19:36:19.502Z,2.47
2018-07-12T19:41:22.769Z,2.40
2018-07-12T19:46:26.127Z,2.30
2018-07-12T19:51:29.441Z,2.13
2018-07-12T19:56:32.743Z,2.27
2018-07-12T20:01:36.105Z,2.00
2018-07-12T20:06:40.257Z,2.07
2018-07-12T20:11:43.655Z,3.17
2018-07-12T20:16:46.949Z,3.07
2018-07-12T20:21:50.250Z,3.50
2018-07-12T20:26:53.770Z,2.00
2018-07-12T20:31:57.114Z,1.80
2018-07-12T20:37:00.311Z,2.00
2018-07-12T20:42:03.725Z,1.93
2018-07-12T20:47:07.128Z,1.93
2018-07-12T20:52:10.423Z,2.70
2018-07-12T20:57:13.797Z,2.27
2018-07-12T21:02:17.198Z,1.87
2018-07-12T21:07:21.412Z,2.30
2018-07-12T21:12:24.603Z,2.20
2018-07-12T21:17:27.860Z,2.20
2018-07-12T21:22:31.116Z,2.00
2018-07-12T21:27:34.357Z,1.83
2018-07-12T21:32:37.771Z,1.83
2018-07-12T21:37:41.054Z,2.17
2018-07-12T21:42:44.322Z,1.80
2018-07-12T21:47:47.562Z,1.50
2018-07-12T21:52:50.858Z,1.80
2018-07-12T21:57:54.144Z,1.70
2018-07-12T22:02:57.553Z,1.60
2018-07-12T22:08:28.348Z,1.90
2018-07-12T22:13:32.632Z,1.87
2018-07-12T22:18:35.923Z,2.20
2018-07-12T22:23:39.182Z,1.83
2018-07-12T22:28:42.413Z,2.10
2018-07-12T22:33:45.667Z,2.30
2018-07-12T22:38:48.944Z,1.83
2018-07-12T22:43:52.215Z,1.90
2018-07-12T22:48:55.643Z,2.00
2018-07-12T22:53:58.853Z,2.20
2018-07-12T22:59:01.974Z,2.27
2018-07-12T23:04:05.227Z,2.27
2018-07-12T23:09:08.695Z,2.10
2018-07-12T23:14:12.032Z,2.10
2018-07-12T23:19:15.319Z,2.20
2018-07-12T23:24:18.707Z,2.67
2018-07-12T23:29:21.978Z,2.77
2018-07-12T23:34:25.302Z,2.50
2018-07-12T23:39:28.586Z,2.53
2018-07-12T23:44:31.842Z,2.67
2018-07-12T23:49:35.123Z,2.57
2018-07-12T23:54:38.427Z,2.87
2018-07-12T23:59:41.777Z,2.70
